Estación Meteorológica Peña el Pijo (Robertgarden) [ 12/10/18 12:08:21 CET ]

Fecha Hora Presion(HPa) Temp (°C) Humedad % Rocio (°C) Viento ( m/s) Direccion Lluvia 1Hora(mm) Lluvia 24H(mm) LLuvia Total(mm)
2018-Aug-07 01:01:48 1011.400 18.4 65 11.7       0.51 269.87
2018-Aug-07 02:01:41 1010.700 17.6 67 11.4       0.51 269.87
2018-Aug-07 03:01:23 1010.500 16.6 72 11.5       0.51 269.87
2018-Aug-07 04:01:26 1009.400 16.2 72 11.2       0.51 269.87
2018-Aug-07 05:01:28 1009.200 16.2 72 11.2       0.51 269.87
2018-Aug-07 06:01:25 1009.000 14.6 74 10.0       0.51 269.87
2018-Aug-07 07:01:52 1009.000 13.6 77 9.6       0.51 269.87
2018-Aug-07 08:01:58 1009.100 13.7 78 9.9       0.51 269.87
2018-Aug-07 09:01:53 1009.000 18.6 74 13.9       0.51 269.87
2018-Aug-07 10:01:53 1009.100 26.8 54 16.7       0.51 269.87
2018-Aug-07 11:01:54 1009.000 32.7 35 15.1       0.51 269.87
2018-Aug-07 12:01:49 1009.300 35.9 27 13.8       0.51 269.87
2018-Aug-07 13:01:41 1009.400 38.6 23 13.6       0.51 269.87
2018-Aug-07 14:01:41 1009.100 37.9 22 12.4       0.51 269.87
2018-Aug-07 15:01:44 1009.400 27.3 42 13.2         269.87
2018-Aug-07 16:01:39 1009.300 22.9 50 11.2     2.07 2.07 271.95
2018-Aug-07 17:01:59 1008.300 22.5 69 16.5     0.51 4.14 274.02
2018-Aug-07 18:01:45 1008.200 28.2 35 11.2       4.14 274.02
2018-Aug-07 19:01:46 1007.900 28.8 28 8.3       4.14 274.02
2018-Aug-07 20:02:12 1008.500 27.4 30 8.3       4.14 274.02
2018-Aug-07 21:01:52 1010.300 22.6 46 10.3       4.14 274.02
2018-Aug-07 22:01:45 1010.100 19.8 56 10.7       4.14 274.02
2018-Aug-07 23:01:31 1010.500 17.8 65 11.1       4.14 274.02

Temperatura Máxima:38°    Temperatura Mínima:13°
Presión Máxima:1011.400 Hpa    Presión Mínima:1007.900 Hpa


Volver